createdAt,value
2023-02-19T00:00:49.259Z,11.48
2023-02-19T00:03:57.053Z,11.41
2023-02-19T00:07:02.015Z,11.39
2023-02-19T00:10:04.934Z,11.41
2023-02-19T00:13:08.783Z,11.33
2023-02-19T00:16:15.095Z,11.27
2023-02-19T00:19:20.415Z,11.32
2023-02-19T00:22:23.213Z,11.25
2023-02-19T00:25:27.354Z,11.30
2023-02-19T00:28:30.148Z,11.16
2023-02-19T00:31:35.667Z,11.11
2023-02-19T00:34:39.545Z,11.17
2023-02-19T00:37:42.174Z,11.16
2023-02-19T00:40:45.103Z,11.09
2023-02-19T00:43:50.354Z,11.03
2023-02-19T00:46:52.948Z,10.97
2023-02-19T00:49:56.009Z,11.02
2023-02-19T00:52:58.571Z,10.99
2023-02-19T00:56:01.321Z,11.03
2023-02-19T00:59:04.763Z,11.10
2023-02-19T01:02:07.309Z,10.96
2023-02-19T01:05:10.116Z,10.93
2023-02-19T01:08:12.832Z,10.85
2023-02-19T01:11:15.864Z,10.88
2023-02-19T01:14:18.579Z,10.90
2023-02-19T01:17:21.604Z,10.85
2023-02-19T01:20:24.852Z,10.85
2023-02-19T01:23:27.556Z,10.84
2023-02-19T01:26:32.345Z,10.77
2023-02-19T01:29:36.745Z,10.64
2023-02-19T01:32:39.379Z,10.80
2023-02-19T01:35:42.378Z,11.14
2023-02-19T01:38:46.667Z,10.98
2023-02-19T01:41:49.232Z,10.80
2023-02-19T01:44:51.834Z,10.69
2023-02-19T01:48:42.154Z,10.68
2023-02-19T01:51:48.340Z,10.79
2023-02-19T01:54:51.122Z,10.86
2023-02-19T01:57:56.443Z,11.06
2023-02-19T02:01:02.608Z,11.13
2023-02-19T02:04:08.003Z,11.13
2023-02-19T02:07:30.157Z,11.07
2023-02-19T02:10:35.743Z,10.84
2023-02-19T02:13:39.954Z,10.80
2023-02-19T02:16:45.506Z,10.71
2023-02-19T02:20:10.668Z,10.81
2023-02-19T02:23:33.209Z,10.86
2023-02-19T02:26:51.338Z,10.87
2023-02-19T02:30:17.540Z,10.80
2023-02-19T02:33:44.587Z,10.83
2023-02-19T02:36:52.477Z,10.70
2023-02-19T02:39:58.590Z,10.69
2023-02-19T02:43:02.902Z,10.59
2023-02-19T02:46:06.703Z,10.66
2023-02-19T02:49:21.437Z,10.67
2023-02-19T02:52:42.894Z,10.66
2023-02-19T02:55:49.710Z,10.59
2023-02-19T02:58:54.030Z,10.50
2023-02-19T03:02:14.749Z,10.42
2023-02-19T03:05:44.973Z,10.52
2023-02-19T03:08:57.004Z,10.38
2023-02-19T03:12:21.957Z,10.30
2023-02-19T03:15:49.909Z,10.34
2023-02-19T03:19:15.969Z,10.35
2023-02-19T03:22:40.596Z,10.40
2023-02-19T03:26:02.906Z,10.39
2023-02-19T03:29:24.295Z,10.28
2023-02-19T03:32:36.473Z,10.26
2023-02-19T03:35:51.029Z,10.24
2023-02-19T03:39:06.710Z,10.26
2023-02-19T03:42:38.456Z,10.03
2023-02-19T03:45:57.090Z,10.00
2023-02-19T03:49:09.999Z,9.97
2023-02-19T03:52:31.565Z,9.93
2023-02-19T03:56:14.227Z,9.95
2023-02-19T03:59:42.534Z,10.16
2023-02-19T04:03:17.674Z,10.37
2023-02-19T04:06:27.483Z,10.37
2023-02-19T04:09:40.871Z,10.46
2023-02-19T04:12:54.173Z,10.34
2023-02-19T04:16:03.582Z,10.28
2023-02-19T04:19:11.612Z,10.33
2023-02-19T04:22:18.931Z,10.34
2023-02-19T04:25:23.979Z,10.46
2023-02-19T04:28:29.053Z,10.34
2023-02-19T04:31:35.506Z,10.10
2023-02-19T04:34:38.266Z,10.16
2023-02-19T04:37:41.246Z,10.05
2023-02-19T04:40:44.272Z,9.99
2023-02-19T04:43:47.228Z,9.94
2023-02-19T04:46:49.821Z,10.04
2023-02-19T04:49:53.076Z,10.18
2023-02-19T04:52:57.255Z,10.17
2023-02-19T04:56:27.705Z,10.28
2023-02-19T04:59:31.379Z,10.28
2023-02-19T05:02:35.093Z,10.32
2023-02-19T05:05:37.608Z,10.13
2023-02-19T05:08:40.774Z,10.21
2023-02-19T05:11:43.429Z,10.09
2023-02-19T05:14:46.374Z,10.00
2023-02-19T05:17:49.009Z,9.91
2023-02-19T05:20:52.443Z,9.96
2023-02-19T05:23:55.043Z,10.07
2023-02-19T05:26:57.669Z,10.07
2023-02-19T05:30:01.113Z,10.36
2023-02-19T05:33:04.241Z,10.23
2023-02-19T05:36:10.704Z,10.35
2023-02-19T05:39:13.568Z,10.27
2023-02-19T05:42:16.212Z,10.10
2023-02-19T05:45:19.844Z,10.14
2023-02-19T05:48:22.369Z,10.20
2023-02-19T05:51:27.228Z,10.25
2023-02-19T05:54:30.623Z,10.11
2023-02-19T05:57:34.392Z,10.02
2023-02-19T06:00:39.190Z,10.02
2023-02-19T06:03:43.361Z,10.06
2023-02-19T06:06:47.233Z,10.11
2023-02-19T06:09:54.942Z,10.10
2023-02-19T06:12:58.333Z,10.09
2023-02-19T06:16:04.600Z,10.16
2023-02-19T06:19:07.602Z,10.19
2023-02-19T06:22:10.340Z,10.16
2023-02-19T06:25:12.918Z,10.30
2023-02-19T06:28:15.630Z,10.22
2023-02-19T06:31:20.552Z,10.29
2023-02-19T06:34:23.776Z,10.41
2023-02-19T06:37:26.622Z,10.52
2023-02-19T06:40:29.456Z,10.37
2023-02-19T06:43:33.330Z,10.44
2023-02-19T06:46:36.172Z,10.49
2023-02-19T06:49:41.878Z,10.63
2023-02-19T06:52:44.453Z,10.71
2023-02-19T06:56:05.911Z,10.71
2023-02-19T06:59:11.672Z,10.74
2023-02-19T07:02:14.337Z,10.74
2023-02-19T07:05:16.969Z,10.75
2023-02-19T07:08:21.197Z,10.70
2023-02-19T07:11:24.474Z,10.77
2023-02-19T07:14:27.189Z,10.91
2023-02-19T07:17:29.699Z,10.89
2023-02-19T07:20:33.461Z,10.96
2023-02-19T07:23:38.152Z,10.91
2023-02-19T07:26:40.770Z,10.92
2023-02-19T07:29:45.609Z,10.99
2023-02-19T07:32:48.374Z,11.04
2023-02-19T07:35:51.391Z,11.13
2023-02-19T07:38:56.617Z,11.17
2023-02-19T07:41:59.203Z,11.09
2023-02-19T07:45:02.776Z,11.09
2023-02-19T07:48:05.864Z,11.29
2023-02-19T07:51:13.424Z,11.42
2023-02-19T07:54:16.431Z,11.51
2023-02-19T07:57:18.949Z,11.52
2023-02-19T08:00:25.863Z,11.58
2023-02-19T08:03:29.136Z,11.54
2023-02-19T08:06:31.751Z,11.56
2023-02-19T08:09:34.480Z,11.70
2023-02-19T08:12:56.686Z,11.61
2023-02-19T08:16:16.006Z,11.76
2023-02-19T08:19:21.950Z,11.68
2023-02-19T08:22:24.615Z,11.63
2023-02-19T08:25:27.336Z,11.53
2023-02-19T08:28:30.780Z,11.52
2023-02-19T08:31:35.132Z,11.37
2023-02-19T08:34:38.009Z,11.29
2023-02-19T08:37:40.633Z,11.16
2023-02-19T08:40:43.761Z,11.00
2023-02-19T08:43:47.832Z,10.98
2023-02-19T08:46:50.480Z,10.85
2023-02-19T08:49:53.258Z,10.91
2023-02-19T08:52:56.228Z,10.94
2023-02-19T08:56:00.309Z,10.72
2023-02-19T08:59:02.969Z,10.77
2023-02-19T09:02:05.600Z,10.48
2023-02-19T09:05:08.346Z,10.48
2023-02-19T09:08:12.771Z,10.16
2023-02-19T09:11:15.613Z,10.18
2023-02-19T09:14:18.196Z,9.97
2023-02-19T09:17:21.044Z,9.98
2023-02-19T09:20:24.627Z,10.03
2023-02-19T09:23:27.315Z,10.05
2023-02-19T09:26:29.958Z,10.02
2023-02-19T09:29:34.498Z,9.96
2023-02-19T09:32:37.031Z,9.88
2023-02-19T09:35:42.356Z,9.81
2023-02-19T09:38:45.947Z,9.90
2023-02-19T09:41:53.845Z,10.18
2023-02-19T09:44:59.935Z,10.44
2023-02-19T09:48:06.307Z,10.39
2023-02-19T09:51:11.297Z,10.37
2023-02-19T09:54:22.755Z,10.32
2023-02-19T09:57:28.267Z,10.51
2023-02-19T10:00:35.110Z,10.91
2023-02-19T10:03:43.768Z,10.98
2023-02-19T10:06:47.658Z,10.77
2023-02-19T10:10:18.816Z,11.04
2023-02-19T10:13:36.129Z,11.50
2023-02-19T10:16:42.304Z,11.96
2023-02-19T10:19:45.002Z,12.96
2023-02-19T10:22:49.085Z,13.09
2023-02-19T10:25:57.186Z,12.09
2023-02-19T10:29:00.077Z,11.58
2023-02-19T10:32:13.988Z,11.58
2023-02-19T10:35:16.786Z,11.90
2023-02-19T10:38:21.496Z,11.95
2023-02-19T10:41:27.977Z,13.07
2023-02-19T10:44:39.392Z,12.90
2023-02-19T10:47:47.023Z,15.45
2023-02-19T10:50:58.214Z,15.56
2023-02-19T10:54:17.016Z,15.65
2023-02-19T10:57:19.582Z,17.09
2023-02-19T11:00:30.912Z,17.04
2023-02-19T11:03:33.530Z,15.23
2023-02-19T11:06:36.165Z,17.28
2023-02-19T11:09:43.918Z,17.74
2023-02-19T11:12:49.221Z,18.03
2023-02-19T11:15:55.957Z,18.85
2023-02-19T11:18:58.816Z,17.68
2023-02-19T11:22:02.368Z,18.49
2023-02-19T11:25:19.403Z,19.14
2023-02-19T11:28:38.906Z,17.63
2023-02-19T11:31:42.877Z,16.35
2023-02-19T11:34:46.725Z,17.93
2023-02-19T11:38:10.951Z,20.03
2023-02-19T11:41:58.015Z,20.10
2023-02-19T11:45:08.310Z,20.33
2023-02-19T11:48:36.251Z,19.77
2023-02-19T11:52:12.674Z,19.21
2023-02-19T11:55:59.151Z,20.55
2023-02-19T11:59:09.795Z,20.94
2023-02-19T12:02:41.124Z,20.50
2023-02-19T12:06:04.800Z,20.80
2023-02-19T12:09:43.886Z,19.13
2023-02-19T12:13:04.493Z,20.02
2023-02-19T12:16:25.099Z,21.18
2023-02-19T12:20:02.118Z,19.39
2023-02-19T12:23:39.737Z,19.19
2023-02-19T12:26:50.597Z,21.83
2023-02-19T12:30:23.082Z,21.38
2023-02-19T12:33:48.037Z,21.55
2023-02-19T12:37:19.036Z,17.03
2023-02-19T12:40:42.591Z,17.00
2023-02-19T12:44:00.771Z,15.00
2023-02-19T12:47:06.916Z,14.18
2023-02-19T12:50:39.302Z,14.00
2023-02-19T12:54:02.667Z,13.82
2023-02-19T12:57:21.486Z,13.73
2023-02-19T13:00:47.059Z,14.81
2023-02-19T13:04:06.141Z,20.28
2023-02-19T13:07:17.627Z,22.01
2023-02-19T13:10:33.899Z,22.36
2023-02-19T13:13:44.380Z,20.34
2023-02-19T13:16:50.968Z,17.57
2023-02-19T13:20:03.390Z,15.92
2023-02-19T13:23:36.621Z,15.31
2023-02-19T13:26:52.227Z,17.45
2023-02-19T13:29:54.927Z,20.40
2023-02-19T13:33:25.258Z,19.06
2023-02-19T13:36:29.812Z,16.84
2023-02-19T13:39:33.498Z,17.87
2023-02-19T13:42:36.835Z,16.69
2023-02-19T13:45:43.307Z,15.51
2023-02-19T13:48:46.111Z,15.02
2023-02-19T13:51:57.109Z,16.45
2023-02-19T13:55:40.745Z,15.75
2023-02-19T13:58:54.618Z,15.08
2023-02-19T14:02:00.625Z,14.64
2023-02-19T14:05:11.499Z,14.51
2023-02-19T14:08:52.877Z,14.68
2023-02-19T14:12:13.729Z,14.52
2023-02-19T14:15:36.937Z,14.31
2023-02-19T14:18:45.101Z,13.66
2023-02-19T14:21:47.666Z,13.52
2023-02-19T14:24:53.382Z,13.69
2023-02-19T14:28:02.475Z,15.58
2023-02-19T14:31:18.019Z,18.47
2023-02-19T14:34:25.401Z,15.36
2023-02-19T14:37:27.961Z,14.90
2023-02-19T14:40:41.706Z,14.51
2023-02-19T14:43:47.501Z,14.90
2023-02-19T14:46:58.970Z,15.13
2023-02-19T14:50:07.283Z,16.13
2023-02-19T14:53:10.291Z,16.39
2023-02-19T14:56:23.820Z,15.58
2023-02-19T14:59:28.808Z,14.45
2023-02-19T15:02:32.567Z,13.96
2023-02-19T15:05:38.211Z,13.82
2023-02-19T15:08:46.613Z,13.54
2023-02-19T15:11:49.382Z,13.01
2023-02-19T15:14:56.744Z,12.88
2023-02-19T15:18:01.518Z,12.75
2023-02-19T15:21:06.894Z,12.70
2023-02-19T15:24:14.284Z,12.66
2023-02-19T15:27:22.702Z,12.56
2023-02-19T15:30:31.514Z,12.21
2023-02-19T15:33:35.002Z,12.03
2023-02-19T15:36:37.821Z,11.94
2023-02-19T15:39:45.058Z,11.80
2023-02-19T15:42:48.011Z,11.80
2023-02-19T15:45:52.544Z,11.64
2023-02-19T15:49:11.492Z,11.57
2023-02-19T15:52:36.431Z,11.45
2023-02-19T15:55:57.999Z,11.37
2023-02-19T15:59:27.519Z,11.31
2023-02-19T16:02:30.540Z,11.25
2023-02-19T16:05:39.359Z,11.22
2023-02-19T16:08:45.550Z,11.21
2023-02-19T16:11:54.681Z,11.19
2023-02-19T16:14:57.984Z,11.21
2023-02-19T16:18:02.186Z,11.20
2023-02-19T16:21:09.288Z,11.18
2023-02-19T16:24:36.857Z,11.14
2023-02-19T16:27:43.074Z,11.05
2023-02-19T16:30:45.820Z,10.92
2023-02-19T16:33:50.062Z,11.01
2023-02-19T16:36:52.607Z,11.04
2023-02-19T16:40:21.433Z,10.99
2023-02-19T16:43:39.298Z,10.88
2023-02-19T16:46:42.006Z,10.70
2023-02-19T16:49:44.854Z,10.66
2023-02-19T16:52:54.511Z,10.54
2023-02-19T16:55:56.937Z,10.48
2023-02-19T16:58:59.836Z,10.46
2023-02-19T17:02:05.650Z,10.40
2023-02-19T17:05:08.507Z,10.31
2023-02-19T17:08:37.394Z,10.17
2023-02-19T17:11:40.316Z,10.22
2023-02-19T17:14:43.150Z,10.10
2023-02-19T17:17:45.946Z,10.04
2023-02-19T17:20:54.420Z,10.14
2023-02-19T17:23:57.429Z,10.03
2023-02-19T17:27:00.590Z,10.03
2023-02-19T17:30:04.228Z,9.96
2023-02-19T17:33:07.572Z,9.91
2023-02-19T17:36:23.836Z,10.04
2023-02-19T17:39:27.789Z,10.10
2023-02-19T17:42:30.546Z,10.00
2023-02-19T17:45:33.765Z,10.00
2023-02-19T17:48:36.416Z,9.97
2023-02-19T17:51:39.583Z,9.84
2023-02-19T17:54:43.248Z,9.77
2023-02-19T17:57:47.880Z,9.83
2023-02-19T18:00:51.044Z,9.82
2023-02-19T18:03:54.484Z,9.79
2023-02-19T18:06:57.434Z,9.62
2023-02-19T18:10:00.171Z,9.53
2023-02-19T18:13:03.395Z,9.51
2023-02-19T18:16:06.783Z,9.55
2023-02-19T18:19:09.881Z,9.49
2023-02-19T18:22:12.652Z,9.44
2023-02-19T18:25:17.388Z,9.42
2023-02-19T18:28:21.323Z,9.40
2023-02-19T18:31:24.135Z,9.33
2023-02-19T18:34:27.019Z,9.31
2023-02-19T18:37:32.480Z,9.23
2023-02-19T18:40:36.362Z,9.10
2023-02-19T18:43:41.397Z,9.05
2023-02-19T18:46:44.558Z,9.12
2023-02-19T18:49:48.633Z,9.05
2023-02-19T18:52:51.827Z,9.05
2023-02-19T18:55:56.899Z,9.08
2023-02-19T18:59:00.466Z,9.13
2023-02-19T19:02:05.095Z,8.99
2023-02-19T19:05:08.980Z,9.08
2023-02-19T19:08:11.661Z,9.03
2023-02-19T19:11:14.277Z,9.05
2023-02-19T19:14:17.007Z,9.04
2023-02-19T19:17:21.810Z,8.94
2023-02-19T19:20:24.689Z,8.86
2023-02-19T19:23:27.606Z,8.95
2023-02-19T19:26:30.701Z,8.95
2023-02-19T19:29:34.297Z,9.01
2023-02-19T19:32:37.862Z,9.03
2023-02-19T19:35:40.624Z,8.96
2023-02-19T19:38:43.621Z,8.95
2023-02-19T19:41:47.094Z,8.98
2023-02-19T19:44:49.925Z,8.94
2023-02-19T19:47:53.119Z,8.80
2023-02-19T19:50:57.173Z,8.73
2023-02-19T19:54:01.186Z,8.71
2023-02-19T19:57:03.825Z,8.56
2023-02-19T20:00:07.342Z,8.50
2023-02-19T20:03:19.046Z,8.47
2023-02-19T20:06:30.816Z,8.48
2023-02-19T20:09:33.829Z,8.50
2023-02-19T20:12:36.579Z,8.56
2023-02-19T20:15:39.424Z,8.45
2023-02-19T20:18:41.964Z,8.37
2023-02-19T20:21:49.116Z,8.41
2023-02-19T20:24:52.985Z,8.34
2023-02-19T20:27:56.201Z,8.26
2023-02-19T20:30:59.000Z,8.32
2023-02-19T20:34:02.222Z,8.19
2023-02-19T20:37:05.706Z,8.10
2023-02-19T20:40:10.738Z,8.11
2023-02-19T20:43:13.426Z,7.97
2023-02-19T20:46:16.431Z,7.99
2023-02-19T20:49:21.609Z,7.92
2023-02-19T20:52:24.879Z,7.79
2023-02-19T20:55:28.088Z,7.64
2023-02-19T20:58:31.957Z,7.72
2023-02-19T21:01:34.813Z,7.78
2023-02-19T21:04:39.023Z,7.65
2023-02-19T21:07:41.711Z,7.66
2023-02-19T21:10:46.527Z,7.57
2023-02-19T21:13:49.348Z,7.53
2023-02-19T21:16:52.436Z,7.54
2023-02-19T21:19:55.172Z,7.51
2023-02-19T21:22:58.076Z,7.39
2023-02-19T21:26:03.068Z,7.32
2023-02-19T21:29:07.676Z,7.26
2023-02-19T21:32:11.170Z,7.23
2023-02-19T21:35:13.695Z,7.24
2023-02-19T21:38:16.184Z,7.22
2023-02-19T21:41:18.873Z,7.26
2023-02-19T21:44:21.772Z,7.11
2023-02-19T21:47:24.319Z,7.13
2023-02-19T21:50:27.145Z,6.93
2023-02-19T21:53:29.794Z,6.83
2023-02-19T21:56:36.217Z,6.80
2023-02-19T21:59:39.756Z,6.71
2023-02-19T22:02:43.098Z,6.56
2023-02-19T22:05:45.597Z,6.53
2023-02-19T22:08:48.180Z,6.49
2023-02-19T22:11:50.990Z,6.43
2023-02-19T22:14:53.414Z,6.34
2023-02-19T22:17:55.898Z,6.20
2023-02-19T22:20:58.668Z,6.12
2023-02-19T22:24:02.884Z,6.05
2023-02-19T22:27:05.532Z,5.90
2023-02-19T22:30:10.056Z,5.89
2023-02-19T22:33:13.685Z,5.78
2023-02-19T22:36:24.709Z,5.73
2023-02-19T22:39:27.231Z,5.61
2023-02-19T22:42:29.725Z,5.64
2023-02-19T22:45:32.279Z,5.42
2023-02-19T22:48:34.792Z,5.47
2023-02-19T22:51:37.513Z,5.45
2023-02-19T22:54:40.255Z,5.47
2023-02-19T22:57:42.642Z,5.35
2023-02-19T23:00:46.636Z,5.21
2023-02-19T23:03:52.126Z,5.40
2023-02-19T23:06:55.251Z,5.33
2023-02-19T23:09:57.892Z,5.26
2023-02-19T23:13:00.517Z,5.19
2023-02-19T23:16:04.732Z,5.15
2023-02-19T23:19:12.607Z,5.07
2023-02-19T23:22:15.169Z,5.08
2023-02-19T23:25:17.733Z,5.10
2023-02-19T23:28:20.612Z,5.00
2023-02-19T23:31:23.596Z,4.95
2023-02-19T23:34:26.246Z,4.84
2023-02-19T23:37:28.812Z,4.91
2023-02-19T23:40:31.721Z,4.97
2023-02-19T23:43:34.166Z,4.97
2023-02-19T23:46:36.784Z,4.82
2023-02-19T23:49:39.236Z,4.87
2023-02-19T23:52:42.206Z,4.78
2023-02-19T23:55:44.732Z,4.80
2023-02-19T23:58:47.322Z,4.79
